sensor_id;sensor_type;location;lat;lon;timestamp;temperature;humidity
26212;DHT22;13951;49.516;6.094;2023-01-01T00:02:01;12.70;99.90
26212;DHT22;13951;49.516;6.094;2023-01-01T00:04:33;12.70;99.90
26212;DHT22;13951;49.516;6.094;2023-01-01T00:07:06;12.70;99.90
26212;DHT22;13951;49.516;6.094;2023-01-01T00:09:39;12.70;99.90
26212;DHT22;13951;49.516;6.094;2023-01-01T00:12:31;12.70;99.90
26212;DHT22;13951;49.516;6.094;2023-01-01T00:15:04;12.70;99.90
26212;DHT22;13951;49.516;6.094;2023-01-01T00:17:37;12.70;99.90
26212;DHT22;13951;49.516;6.094;2023-01-01T00:20:10;12.70;99.90
26212;DHT22;13951;49.516;6.094;2023-01-01T00:22:43;12.70;99.90
26212;DHT22;13951;49.516;6.094;2023-01-01T00:25:26;12.70;99.90
26212;DHT22;13951;49.516;6.094;2023-01-01T00:27:59;12.70;99.90
26212;DHT22;13951;49.516;6.094;2023-01-01T00:30:32;12.60;99.90
26212;DHT22;13951;49.516;6.094;2023-01-01T00:33:05;12.60;99.90
26212;DHT22;13951;49.516;6.094;2023-01-01T00:35:38;12.60;99.90
26212;DHT22;13951;49.516;6.094;2023-01-01T00:38:10;12.60;99.90
26212;DHT22;13951;49.516;6.094;2023-01-01T00:40:43;12.60;99.90
26212;DHT22;13951;49.516;6.094;2023-01-01T00:43:16;12.60;99.90
26212;DHT22;13951;49.516;6.094;2023-01-01T00:45:49;12.70;99.90
26212;DHT22;13951;49.516;6.094;2023-01-01T00:48:24;12.70;99.90
26212;DHT22;13951;49.516;6.094;2023-01-01T00:50:57;12.60;99.90
26212;DHT22;13951;49.516;6.094;2023-01-01T00:53:30;12.70;99.90
26212;DHT22;13951;49.516;6.094;2023-01-01T00:56:04;12.60;99.90
26212;DHT22;13951;49.516;6.094;2023-01-01T00:58:36;12.60;99.90
26212;DHT22;13951;49.516;6.094;2023-01-01T01:01:09;12.60;99.90
26212;DHT22;13951;49.516;6.094;2023-01-01T01:03:42;12.60;99.90
26212;DHT22;13951;49.516;6.094;2023-01-01T01:06:16;12.60;99.90
26212;DHT22;13951;49.516;6.094;2023-01-01T01:08:49;12.60;99.90
26212;DHT22;13951;49.516;6.094;2023-01-01T01:11:23;12.60;99.90
26212;DHT22;13951;49.516;6.094;2023-01-01T01:13:56;12.50;99.90
26212;DHT22;13951;49.516;6.094;2023-01-01T01:16:32;12.60;99.90
26212;DHT22;13951;49.516;6.094;2023-01-01T01:19:05;12.60;99.90
26212;DHT22;13951;49.516;6.094;2023-01-01T01:21:38;12.50;99.90
26212;DHT22;13951;49.516;6.094;2023-01-01T01:24:11;12.50;99.90
26212;DHT22;13951;49.516;6.094;2023-01-01T01:26:44;12.50;99.90
26212;DHT22;13951;49.516;6.094;2023-01-01T01:29:17;12.50;99.90
26212;DHT22;13951;49.516;6.094;2023-01-01T01:31:50;12.50;99.90
26212;DHT22;13951;49.516;6.094;2023-01-01T01:34:22;12.50;99.90
26212;DHT22;13951;49.516;6.094;2023-01-01T01:37:00;12.50;99.90
26212;DHT22;13951;49.516;6.094;2023-01-01T01:39:32;12.40;99.90
26212;DHT22;13951;49.516;6.094;2023-01-01T01:42:06;12.50;99.90
26212;DHT22;13951;49.516;6.094;2023-01-01T01:44:50;12.50;99.90
26212;DHT22;13951;49.516;6.094;2023-01-01T01:47:39;12.40;99.90
26212;DHT22;13951;49.516;6.094;2023-01-01T01:50:24;12.40;99.90
26212;DHT22;13951;49.516;6.094;2023-01-01T01:55:39;12.50;99.90
26212;DHT22;13951;49.516;6.094;2023-01-01T01:58:15;12.50;99.90
26212;DHT22;13951;49.516;6.094;2023-01-01T02:00:48;12.50;99.90
26212;DHT22;13951;49.516;6.094;2023-01-01T02:06:19;12.50;99.90
26212;DHT22;13951;49.516;6.094;2023-01-01T02:08:53;12.50;99.90
26212;DHT22;13951;49.516;6.094;2023-01-01T02:11:26;12.60;99.90
26212;DHT22;13951;49.516;6.094;2023-01-01T02:14:00;12.60;99.90
26212;DHT22;13951;49.516;6.094;2023-01-01T02:30:52;12.50;99.90
26212;DHT22;13951;49.516;6.094;2023-01-01T02:33:26;12.50;99.90
26212;DHT22;13951;49.516;6.094;2023-01-01T02:36:02;12.50;99.90
26212;DHT22;13951;49.516;6.094;2023-01-01T02:38:36;12.40;99.90
26212;DHT22;13951;49.516;6.094;2023-01-01T02:41:22;12.50;99.90
26212;DHT22;13951;49.516;6.094;2023-01-01T02:43:56;12.50;99.90
26212;DHT22;13951;49.516;6.094;2023-01-01T02:46:32;12.50;99.90
26212;DHT22;13951;49.516;6.094;2023-01-01T02:49:05;12.50;99.90
26212;DHT22;13951;49.516;6.094;2023-01-01T02:52:02;12.50;99.90
26212;DHT22;13951;49.516;6.094;2023-01-01T02:54:58;12.50;99.90
26212;DHT22;13951;49.516;6.094;2023-01-01T02:57:45;12.50;99.90
26212;DHT22;13951;49.516;6.094;2023-01-01T03:00:22;12.50;99.90
26212;DHT22;13951;49.516;6.094;2023-01-01T03:03:26;12.50;99.90
26212;DHT22;13951;49.516;6.094;2023-01-01T03:09:46;12.50;99.90
26212;DHT22;13951;49.516;6.094;2023-01-01T03:12:05;12.60;99.90
26212;DHT22;13951;49.516;6.094;2023-01-01T03:15:00;12.50;99.90
26212;DHT22;13951;49.516;6.094;2023-01-01T03:17:43;12.60;99.90
26212;DHT22;13951;49.516;6.094;2023-01-01T03:20:21;12.60;99.90
26212;DHT22;13951;49.516;6.094;2023-01-01T03:23:00;12.70;99.90
26212;DHT22;13951;49.516;6.094;2023-01-01T03:25:50;12.70;99.90
26212;DHT22;13951;49.516;6.094;2023-01-01T03:28:39;12.70;99.90
26212;DHT22;13951;49.516;6.094;2023-01-01T03:31:18;12.70;99.90
26212;DHT22;13951;49.516;6.094;2023-01-01T03:34:02;12.70;99.90
26212;DHT22;13951;49.516;6.094;2023-01-01T03:36:39;12.70;99.90
26212;DHT22;13951;49.516;6.094;2023-01-01T03:44:49;12.60;99.90
26212;DHT22;13951;49.516;6.094;2023-01-01T03:47:24;12.60;99.90
26212;DHT22;13951;49.516;6.094;2023-01-01T03:49:57;12.60;99.90
26212;DHT22;13951;49.516;6.094;2023-01-01T03:52:45;12.50;99.90
26212;DHT22;13951;49.516;6.094;2023-01-01T03:55:35;12.50;99.90
26212;DHT22;13951;49.516;6.094;2023-01-01T03:58:25;12.50;99.90
26212;DHT22;13951;49.516;6.094;2023-01-01T04:01:10;12.40;99.90
26212;DHT22;13951;49.516;6.094;2023-01-01T04:03:43;12.40;99.90
26212;DHT22;13951;49.516;6.094;2023-01-01T04:06:17;12.40;99.90
26212;DHT22;13951;49.516;6.094;2023-01-01T04:08:52;12.30;99.90
26212;DHT22;13951;49.516;6.094;2023-01-01T04:11:29;12.30;99.90
26212;DHT22;13951;49.516;6.094;2023-01-01T04:14:32;12.20;99.90
26212;DHT22;13951;49.516;6.094;2023-01-01T04:17:06;12.20;99.90
26212;DHT22;13951;49.516;6.094;2023-01-01T04:19:39;12.20;99.90
26212;DHT22;13951;49.516;6.094;2023-01-01T04:22:12;12.10;99.90
26212;DHT22;13951;49.516;6.094;2023-01-01T04:24:45;12.10;99.90
26212;DHT22;13951;49.516;6.094;2023-01-01T04:27:18;12.20;99.90
26212;DHT22;13951;49.516;6.094;2023-01-01T04:29:51;12.20;99.90
26212;DHT22;13951;49.516;6.094;2023-01-01T04:32:24;12.20;99.90
26212;DHT22;13951;49.516;6.094;2023-01-01T04:34:57;12.20;99.90
26212;DHT22;13951;49.516;6.094;2023-01-01T04:37:30;12.20;99.90
26212;DHT22;13951;49.516;6.094;2023-01-01T04:40:04;12.20;99.90
26212;DHT22;13951;49.516;6.094;2023-01-01T04:42:37;12.20;99.90
26212;DHT22;13951;49.516;6.094;2023-01-01T04:45:10;12.20;99.90
26212;DHT22;13951;49.516;6.094;2023-01-01T04:47:46;12.10;99.90
26212;DHT22;13951;49.516;6.094;2023-01-01T04:50:19;12.10;99.90
26212;DHT22;13951;49.516;6.094;2023-01-01T04:52:51;12.10;99.90
26212;DHT22;13951;49.516;6.094;2023-01-01T04:55:25;12.10;99.90
26212;DHT22;13951;49.516;6.094;2023-01-01T04:57:58;12.10;99.90
26212;DHT22;13951;49.516;6.094;2023-01-01T05:00:30;12.10;99.90
26212;DHT22;13951;49.516;6.094;2023-01-01T05:03:03;12.10;99.90
26212;DHT22;13951;49.516;6.094;2023-01-01T05:05:36;12.10;99.90
26212;DHT22;13951;49.516;6.094;2023-01-01T05:08:09;12.00;99.90
26212;DHT22;13951;49.516;6.094;2023-01-01T05:10:42;12.00;99.90
26212;DHT22;13951;49.516;6.094;2023-01-01T05:13:14;12.00;99.90
26212;DHT22;13951;49.516;6.094;2023-01-01T05:15:47;12.00;99.90
26212;DHT22;13951;49.516;6.094;2023-01-01T05:18:21;12.00;99.90
26212;DHT22;13951;49.516;6.094;2023-01-01T05:21:01;11.90;99.90
26212;DHT22;13951;49.516;6.094;2023-01-01T05:23:34;11.90;99.90
26212;DHT22;13951;49.516;6.094;2023-01-01T05:26:15;11.90;99.90
26212;DHT22;13951;49.516;6.094;2023-01-01T05:28:49;11.90;99.90
26212;DHT22;13951;49.516;6.094;2023-01-01T05:31:24;11.90;99.90
26212;DHT22;13951;49.516;6.094;2023-01-01T05:33:57;11.90;99.90
26212;DHT22;13951;49.516;6.094;2023-01-01T05:36:32;11.90;99.90
26212;DHT22;13951;49.516;6.094;2023-01-01T05:39:07;11.90;99.90
26212;DHT22;13951;49.516;6.094;2023-01-01T05:41:40;11.90;99.90
26212;DHT22;13951;49.516;6.094;2023-01-01T05:44:13;11.90;99.90
26212;DHT22;13951;49.516;6.094;2023-01-01T05:46:48;11.90;99.90
26212;DHT22;13951;49.516;6.094;2023-01-01T05:49:20;12.00;99.90
26212;DHT22;13951;49.516;6.094;2023-01-01T05:51:53;12.00;99.90
26212;DHT22;13951;49.516;6.094;2023-01-01T05:54:26;12.10;99.90
26212;DHT22;13951;49.516;6.094;2023-01-01T05:56:59;12.10;99.90
26212;DHT22;13951;49.516;6.094;2023-01-01T05:59:31;12.20;99.90
26212;DHT22;13951;49.516;6.094;2023-01-01T06:02:04;12.20;99.90
26212;DHT22;13951;49.516;6.094;2023-01-01T06:04:37;12.20;99.90
26212;DHT22;13951;49.516;6.094;2023-01-01T06:07:10;12.20;99.90
26212;DHT22;13951;49.516;6.094;2023-01-01T06:09:42;12.10;99.90
26212;DHT22;13951;49.516;6.094;2023-01-01T06:12:15;12.10;99.90
26212;DHT22;13951;49.516;6.094;2023-01-01T06:14:48;12.10;99.90
26212;DHT22;13951;49.516;6.094;2023-01-01T06:17:21;12.10;99.90
26212;DHT22;13951;49.516;6.094;2023-01-01T06:19:53;12.10;99.90
26212;DHT22;13951;49.516;6.094;2023-01-01T06:22:26;12.10;99.90
26212;DHT22;13951;49.516;6.094;2023-01-01T06:24:59;12.00;99.90
26212;DHT22;13951;49.516;6.094;2023-01-01T06:27:34;12.00;99.90
26212;DHT22;13951;49.516;6.094;2023-01-01T06:30:07;12.00;99.90
26212;DHT22;13951;49.516;6.094;2023-01-01T06:32:40;12.00;99.90
26212;DHT22;13951;49.516;6.094;2023-01-01T06:35:13;11.90;99.90
26212;DHT22;13951;49.516;6.094;2023-01-01T06:37:46;11.90;99.90
26212;DHT22;13951;49.516;6.094;2023-01-01T06:40:19;11.90;99.90
26212;DHT22;13951;49.516;6.094;2023-01-01T06:42:52;11.90;99.90
26212;DHT22;13951;49.516;6.094;2023-01-01T06:45:24;11.90;99.90
26212;DHT22;13951;49.516;6.094;2023-01-01T06:47:57;11.90;99.90
26212;DHT22;13951;49.516;6.094;2023-01-01T06:50:30;11.90;99.90
26212;DHT22;13951;49.516;6.094;2023-01-01T06:53:03;11.90;99.90
26212;DHT22;13951;49.516;6.094;2023-01-01T06:55:35;11.90;99.90
26212;DHT22;13951;49.516;6.094;2023-01-01T06:58:09;11.90;99.90
26212;DHT22;13951;49.516;6.094;2023-01-01T07:00:42;12.00;99.90
26212;DHT22;13951;49.516;6.094;2023-01-01T07:03:15;11.90;99.90
26212;DHT22;13951;49.516;6.094;2023-01-01T07:05:48;12.00;99.90
26212;DHT22;13951;49.516;6.094;2023-01-01T07:08:20;12.00;99.90
26212;DHT22;13951;49.516;6.094;2023-01-01T07:10:54;12.00;99.90
26212;DHT22;13951;49.516;6.094;2023-01-01T07:13:29;12.00;99.90
26212;DHT22;13951;49.516;6.094;2023-01-01T07:16:03;12.00;99.90
26212;DHT22;13951;49.516;6.094;2023-01-01T07:18:44;12.00;99.90
26212;DHT22;13951;49.516;6.094;2023-01-01T07:21:43;12.00;99.90
26212;DHT22;13951;49.516;6.094;2023-01-01T07:24:17;12.00;99.90
26212;DHT22;13951;49.516;6.094;2023-01-01T07:26:50;12.10;99.90
26212;DHT22;13951;49.516;6.094;2023-01-01T07:29:23;12.10;99.90
26212;DHT22;13951;49.516;6.094;2023-01-01T07:31:55;12.10;99.90
26212;DHT22;13951;49.516;6.094;2023-01-01T07:34:28;12.10;99.90
26212;DHT22;13951;49.516;6.094;2023-01-01T07:37:01;12.10;99.90
26212;DHT22;13951;49.516;6.094;2023-01-01T07:39:34;12.20;99.90
26212;DHT22;13951;49.516;6.094;2023-01-01T07:42:06;12.20;99.90
26212;DHT22;13951;49.516;6.094;2023-01-01T07:44:42;12.20;99.90
26212;DHT22;13951;49.516;6.094;2023-01-01T07:47:24;12.20;99.90
26212;DHT22;13951;49.516;6.094;2023-01-01T07:49:57;12.20;99.90
26212;DHT22;13951;49.516;6.094;2023-01-01T07:52:30;12.20;99.90
26212;DHT22;13951;49.516;6.094;2023-01-01T07:55:02;12.20;99.90
26212;DHT22;13951;49.516;6.094;2023-01-01T07:57:35;12.20;99.90
26212;DHT22;13951;49.516;6.094;2023-01-01T08:00:10;12.30;99.90
26212;DHT22;13951;49.516;6.094;2023-01-01T08:02:48;12.30;99.90
26212;DHT22;13951;49.516;6.094;2023-01-01T08:05:21;12.30;99.90
26212;DHT22;13951;49.516;6.094;2023-01-01T08:07:58;12.30;99.90
26212;DHT22;13951;49.516;6.094;2023-01-01T08:10:31;12.30;99.90
26212;DHT22;13951;49.516;6.094;2023-01-01T08:13:06;12.30;99.90
26212;DHT22;13951;49.516;6.094;2023-01-01T08:15:39;12.40;99.90
26212;DHT22;13951;49.516;6.094;2023-01-01T08:18:12;12.40;99.90
26212;DHT22;13951;49.516;6.094;2023-01-01T08:20:44;12.40;99.90
26212;DHT22;13951;49.516;6.094;2023-01-01T08:23:17;12.50;99.90
26212;DHT22;13951;49.516;6.094;2023-01-01T08:25:50;12.50;99.90
26212;DHT22;13951;49.516;6.094;2023-01-01T08:29:24;12.40;99.90
26212;DHT22;13951;49.516;6.094;2023-01-01T08:31:57;12.50;99.90
26212;DHT22;13951;49.516;6.094;2023-01-01T08:34:29;12.40;99.90
26212;DHT22;13951;49.516;6.094;2023-01-01T08:37:02;12.40;99.90
26212;DHT22;13951;49.516;6.094;2023-01-01T08:39:35;12.40;99.90
26212;DHT22;13951;49.516;6.094;2023-01-01T08:42:08;12.40;99.90
26212;DHT22;13951;49.516;6.094;2023-01-01T08:44:44;12.30;99.90
26212;DHT22;13951;49.516;6.094;2023-01-01T08:47:19;12.40;99.90
26212;DHT22;13951;49.516;6.094;2023-01-01T08:49:52;12.40;99.90
26212;DHT22;13951;49.516;6.094;2023-01-01T08:52:25;12.40;99.90
26212;DHT22;13951;49.516;6.094;2023-01-01T08:54:58;12.40;99.90
26212;DHT22;13951;49.516;6.094;2023-01-01T08:57:32;12.40;99.90
26212;DHT22;13951;49.516;6.094;2023-01-01T09:00:05;12.40;99.90
26212;DHT22;13951;49.516;6.094;2023-01-01T09:02:41;12.40;99.90
26212;DHT22;13951;49.516;6.094;2023-01-01T09:05:14;12.40;99.90
26212;DHT22;13951;49.516;6.094;2023-01-01T09:07:47;12.40;99.90
26212;DHT22;13951;49.516;6.094;2023-01-01T09:10:20;12.40;99.90
26212;DHT22;13951;49.516;6.094;2023-01-01T09:12:53;12.50;99.90
26212;DHT22;13951;49.516;6.094;2023-01-01T09:15:25;12.40;99.90
26212;DHT22;13951;49.516;6.094;2023-01-01T09:17:58;12.40;99.90
26212;DHT22;13951;49.516;6.094;2023-01-01T09:20:31;12.50;99.90
26212;DHT22;13951;49.516;6.094;2023-01-01T09:23:05;12.50;99.90
26212;DHT22;13951;49.516;6.094;2023-01-01T09:25:38;12.50;99.90
26212;DHT22;13951;49.516;6.094;2023-01-01T09:28:12;12.40;99.90
26212;DHT22;13951;49.516;6.094;2023-01-01T09:30:46;12.50;99.90
26212;DHT22;13951;49.516;6.094;2023-01-01T09:33:18;12.40;99.90
26212;DHT22;13951;49.516;6.094;2023-01-01T09:35:51;12.50;99.90
26212;DHT22;13951;49.516;6.094;2023-01-01T09:38:24;12.50;99.90
26212;DHT22;13951;49.516;6.094;2023-01-01T09:41:05;12.50;99.90
26212;DHT22;13951;49.516;6.094;2023-01-01T09:44:16;12.50;99.90
26212;DHT22;13951;49.516;6.094;2023-01-01T09:46:53;12.60;99.90
26212;DHT22;13951;49.516;6.094;2023-01-01T09:49:43;12.60;99.90
26212;DHT22;13951;49.516;6.094;2023-01-01T09:52:19;12.60;99.90
26212;DHT22;13951;49.516;6.094;2023-01-01T09:54:58;12.60;99.90
26212;DHT22;13951;49.516;6.094;2023-01-01T09:57:32;12.60;99.90
26212;DHT22;13951;49.516;6.094;2023-01-01T10:00:13;12.60;99.90
26212;DHT22;13951;49.516;6.094;2023-01-01T10:11:54;12.50;99.90
26212;DHT22;13951;49.516;6.094;2023-01-01T10:14:33;12.50;99.90
26212;DHT22;13951;49.516;6.094;2023-01-01T10:17:18;12.50;99.90
26212;DHT22;13951;49.516;6.094;2023-01-01T10:19:57;12.50;99.90
26212;DHT22;13951;49.516;6.094;2023-01-01T10:22:38;12.50;99.90
26212;DHT22;13951;49.516;6.094;2023-01-01T10:25:25;12.50;99.90
26212;DHT22;13951;49.516;6.094;2023-01-01T10:28:11;12.50;99.90
26212;DHT22;13951;49.516;6.094;2023-01-01T10:30:45;12.50;99.90
26212;DHT22;13951;49.516;6.094;2023-01-01T10:33:18;12.50;99.90
26212;DHT22;13951;49.516;6.094;2023-01-01T10:35:53;12.60;99.90
26212;DHT22;13951;49.516;6.094;2023-01-01T10:38:28;12.60;99.90
26212;DHT22;13951;49.516;6.094;2023-01-01T10:41:06;12.70;99.90
26212;DHT22;13951;49.516;6.094;2023-01-01T10:43:45;12.60;99.90
26212;DHT22;13951;49.516;6.094;2023-01-01T10:46:21;12.60;99.90
26212;DHT22;13951;49.516;6.094;2023-01-01T10:49:08;12.70;99.90
26212;DHT22;13951;49.516;6.094;2023-01-01T10:51:51;12.70;99.90
26212;DHT22;13951;49.516;6.094;2023-01-01T10:54:38;12.70;99.90
26212;DHT22;13951;49.516;6.094;2023-01-01T10:57:34;12.70;99.90
26212;DHT22;13951;49.516;6.094;2023-01-01T11:00:21;12.70;99.90
26212;DHT22;13951;49.516;6.094;2023-01-01T11:03:17;12.70;99.90
26212;DHT22;13951;49.516;6.094;2023-01-01T11:08:38;12.80;99.90
26212;DHT22;13951;49.516;6.094;2023-01-01T11:11:25;12.80;99.90
26212;DHT22;13951;49.516;6.094;2023-01-01T11:14:00;12.80;99.90
26212;DHT22;13951;49.516;6.094;2023-01-01T11:16:37;12.80;99.90
26212;DHT22;13951;49.516;6.094;2023-01-01T11:19:19;12.90;99.90
26212;DHT22;13951;49.516;6.094;2023-01-01T11:21:54;12.90;99.90
26212;DHT22;13951;49.516;6.094;2023-01-01T11:24:29;12.90;99.90
26212;DHT22;13951;49.516;6.094;2023-01-01T11:27:12;13.00;99.90
26212;DHT22;13951;49.516;6.094;2023-01-01T11:29:50;13.00;99.90
26212;DHT22;13951;49.516;6.094;2023-01-01T11:32:34;13.10;99.90
26212;DHT22;13951;49.516;6.094;2023-01-01T11:35:16;13.10;99.90
26212;DHT22;13951;49.516;6.094;2023-01-01T11:37:52;13.10;99.90
26212;DHT22;13951;49.516;6.094;2023-01-01T11:40:36;13.20;99.90
26212;DHT22;13951;49.516;6.094;2023-01-01T11:43:17;13.10;99.90
26212;DHT22;13951;49.516;6.094;2023-01-01T11:45:53;13.10;99.90
26212;DHT22;13951;49.516;6.094;2023-01-01T11:48:32;13.10;99.90
26212;DHT22;13951;49.516;6.094;2023-01-01T11:51:07;13.10;99.90
26212;DHT22;13951;49.516;6.094;2023-01-01T11:53:40;13.20;99.90
26212;DHT22;13951;49.516;6.094;2023-01-01T11:58:56;13.10;99.90
26212;DHT22;13951;49.516;6.094;2023-01-01T12:04:47;13.10;99.90
26212;DHT22;13951;49.516;6.094;2023-01-01T12:07:26;13.00;99.90
26212;DHT22;13951;49.516;6.094;2023-01-01T12:10:08;13.10;99.90
26212;DHT22;13951;49.516;6.094;2023-01-01T12:15:38;13.00;99.90
26212;DHT22;13951;49.516;6.094;2023-01-01T12:18:24;13.00;99.90
26212;DHT22;13951;49.516;6.094;2023-01-01T12:21:21;13.00;99.90
26212;DHT22;13951;49.516;6.094;2023-01-01T12:23:56;13.00;99.90
26212;DHT22;13951;49.516;6.094;2023-01-01T12:35:27;13.00;99.90
26212;DHT22;13951;49.516;6.094;2023-01-01T12:44:04;13.00;99.90
26212;DHT22;13951;49.516;6.094;2023-01-01T12:46:46;13.10;99.90
26212;DHT22;13951;49.516;6.094;2023-01-01T12:49:33;13.10;99.90
26212;DHT22;13951;49.516;6.094;2023-01-01T12:52:19;13.10;99.90
26212;DHT22;13951;49.516;6.094;2023-01-01T12:55:29;13.20;99.90
26212;DHT22;13951;49.516;6.094;2023-01-01T12:58:37;13.10;99.90
26212;DHT22;13951;49.516;6.094;2023-01-01T13:01:26;13.20;99.90
26212;DHT22;13951;49.516;6.094;2023-01-01T13:04:10;13.20;99.90
26212;DHT22;13951;49.516;6.094;2023-01-01T13:07:00;13.20;99.90
26212;DHT22;13951;49.516;6.094;2023-01-01T13:09:43;13.20;99.90
26212;DHT22;13951;49.516;6.094;2023-01-01T13:12:21;13.20;99.90
26212;DHT22;13951;49.516;6.094;2023-01-01T13:14:55;13.20;99.90
26212;DHT22;13951;49.516;6.094;2023-01-01T13:17:29;13.20;99.90
26212;DHT22;13951;49.516;6.094;2023-01-01T13:22:38;13.10;99.90
26212;DHT22;13951;49.516;6.094;2023-01-01T13:33:28;13.10;99.90
26212;DHT22;13951;49.516;6.094;2023-01-01T13:38:56;13.10;99.90
26212;DHT22;13951;49.516;6.094;2023-01-01T13:41:45;13.10;99.90
26212;DHT22;13951;49.516;6.094;2023-01-01T13:44:21;13.00;99.90
26212;DHT22;13951;49.516;6.094;2023-01-01T13:47:21;13.00;99.90
26212;DHT22;13951;49.516;6.094;2023-01-01T13:50:31;13.00;99.90
26212;DHT22;13951;49.516;6.094;2023-01-01T13:56:33;13.00;99.90
26212;DHT22;13951;49.516;6.094;2023-01-01T14:02:14;13.00;99.90
26212;DHT22;13951;49.516;6.094;2023-01-01T14:04:59;12.90;99.90
26212;DHT22;13951;49.516;6.094;2023-01-01T14:07:43;12.90;99.90
26212;DHT22;13951;49.516;6.094;2023-01-01T14:16:00;12.90;99.90
26212;DHT22;13951;49.516;6.094;2023-01-01T14:18:38;12.90;99.90
26212;DHT22;13951;49.516;6.094;2023-01-01T14:21:17;13.00;99.90
26212;DHT22;13951;49.516;6.094;2023-01-01T14:23:57;12.90;99.90
26212;DHT22;13951;49.516;6.094;2023-01-01T14:26:32;12.90;99.90
26212;DHT22;13951;49.516;6.094;2023-01-01T14:29:09;12.90;99.90
26212;DHT22;13951;49.516;6.094;2023-01-01T14:31:43;12.90;99.90
26212;DHT22;13951;49.516;6.094;2023-01-01T14:34:29;12.90;99.90
26212;DHT22;13951;49.516;6.094;2023-01-01T14:37:04;12.90;99.90
26212;DHT22;13951;49.516;6.094;2023-01-01T14:39:37;12.90;99.90
26212;DHT22;13951;49.516;6.094;2023-01-01T14:42:15;12.90;99.90
26212;DHT22;13951;49.516;6.094;2023-01-01T14:44:50;12.80;99.90
26212;DHT22;13951;49.516;6.094;2023-01-01T14:47:31;12.80;99.90
26212;DHT22;13951;49.516;6.094;2023-01-01T14:52:42;12.70;99.90
26212;DHT22;13951;49.516;6.094;2023-01-01T14:55:17;12.70;99.90
26212;DHT22;13951;49.516;6.094;2023-01-01T14:57:56;12.70;99.90
26212;DHT22;13951;49.516;6.094;2023-01-01T15:00:31;12.70;99.90
26212;DHT22;13951;49.516;6.094;2023-01-01T15:03:24;12.70;99.90
26212;DHT22;13951;49.516;6.094;2023-01-01T15:05:59;12.70;99.90
26212;DHT22;13951;49.516;6.094;2023-01-01T15:08:32;12.70;99.90
26212;DHT22;13951;49.516;6.094;2023-01-01T15:11:05;12.60;99.90
26212;DHT22;13951;49.516;6.094;2023-01-01T15:13:38;12.60;99.90
26212;DHT22;13951;49.516;6.094;2023-01-01T15:16:16;12.50;99.90
26212;DHT22;13951;49.516;6.094;2023-01-01T15:18:50;12.50;99.90
26212;DHT22;13951;49.516;6.094;2023-01-01T15:21:33;12.60;99.90
26212;DHT22;13951;49.516;6.094;2023-01-01T15:24:14;12.50;99.90
26212;DHT22;13951;49.516;6.094;2023-01-01T15:26:58;12.50;99.90
26212;DHT22;13951;49.516;6.094;2023-01-01T15:29:44;12.50;99.90
26212;DHT22;13951;49.516;6.094;2023-01-01T15:32:27;12.50;99.90
26212;DHT22;13951;49.516;6.094;2023-01-01T15:35:26;12.50;99.90
26212;DHT22;13951;49.516;6.094;2023-01-01T15:38:10;12.50;99.90
26212;DHT22;13951;49.516;6.094;2023-01-01T15:40:43;12.50;99.90
26212;DHT22;13951;49.516;6.094;2023-01-01T15:43:29;12.50;99.90
26212;DHT22;13951;49.516;6.094;2023-01-01T15:46:29;12.40;99.90
26212;DHT22;13951;49.516;6.094;2023-01-01T15:49:24;12.40;99.90
26212;DHT22;13951;49.516;6.094;2023-01-01T15:52:02;12.40;99.90
26212;DHT22;13951;49.516;6.094;2023-01-01T15:54:38;12.30;99.90
26212;DHT22;13951;49.516;6.094;2023-01-01T15:57:18;12.30;99.90
26212;DHT22;13951;49.516;6.094;2023-01-01T15:59:52;12.30;99.90
26212;DHT22;13951;49.516;6.094;2023-01-01T16:02:32;12.30;99.90
26212;DHT22;13951;49.516;6.094;2023-01-01T16:05:14;12.40;99.90
26212;DHT22;13951;49.516;6.094;2023-01-01T16:07:57;12.40;99.90
26212;DHT22;13951;49.516;6.094;2023-01-01T16:10:30;12.30;99.90
26212;DHT22;13951;49.516;6.094;2023-01-01T16:13:03;12.30;99.90
26212;DHT22;13951;49.516;6.094;2023-01-01T16:15:36;12.30;99.90
26212;DHT22;13951;49.516;6.094;2023-01-01T16:18:10;12.30;99.90
26212;DHT22;13951;49.516;6.094;2023-01-01T16:20:44;12.30;99.90
26212;DHT22;13951;49.516;6.094;2023-01-01T16:23:17;12.20;99.90
26212;DHT22;13951;49.516;6.094;2023-01-01T16:25:50;12.20;99.90
26212;DHT22;13951;49.516;6.094;2023-01-01T16:28:23;12.20;99.90
26212;DHT22;13951;49.516;6.094;2023-01-01T16:30:56;12.20;99.90
26212;DHT22;13951;49.516;6.094;2023-01-01T16:33:29;12.20;99.90
26212;DHT22;13951;49.516;6.094;2023-01-01T16:36:02;12.20;99.90
26212;DHT22;13951;49.516;6.094;2023-01-01T16:38:35;12.20;99.90
26212;DHT22;13951;49.516;6.094;2023-01-01T16:41:12;12.20;99.90
26212;DHT22;13951;49.516;6.094;2023-01-01T16:43:46;12.20;99.90
26212;DHT22;13951;49.516;6.094;2023-01-01T16:46:19;12.20;99.90
26212;DHT22;13951;49.516;6.094;2023-01-01T16:48:52;12.20;99.90
26212;DHT22;13951;49.516;6.094;2023-01-01T16:51:29;12.20;99.90
26212;DHT22;13951;49.516;6.094;2023-01-01T16:54:02;12.20;99.90
26212;DHT22;13951;49.516;6.094;2023-01-01T16:56:35;12.20;99.90
26212;DHT22;13951;49.516;6.094;2023-01-01T16:59:08;12.20;99.90
26212;DHT22;13951;49.516;6.094;2023-01-01T17:01:40;12.20;99.90
26212;DHT22;13951;49.516;6.094;2023-01-01T17:04:13;12.20;99.90
26212;DHT22;13951;49.516;6.094;2023-01-01T17:06:46;12.20;99.90
26212;DHT22;13951;49.516;6.094;2023-01-01T17:09:19;12.20;99.90
26212;DHT22;13951;49.516;6.094;2023-01-01T17:11:51;12.10;99.90
26212;DHT22;13951;49.516;6.094;2023-01-01T17:14:24;12.10;99.90
26212;DHT22;13951;49.516;6.094;2023-01-01T17:16:57;12.10;99.90
26212;DHT22;13951;49.516;6.094;2023-01-01T17:19:30;12.10;99.90
26212;DHT22;13951;49.516;6.094;2023-01-01T17:22:02;12.10;99.90
26212;DHT22;13951;49.516;6.094;2023-01-01T17:24:37;12.10;99.90
26212;DHT22;13951;49.516;6.094;2023-01-01T17:27:09;12.10;99.90
26212;DHT22;13951;49.516;6.094;2023-01-01T17:29:42;12.10;99.90
26212;DHT22;13951;49.516;6.094;2023-01-01T17:32:15;12.10;99.90
26212;DHT22;13951;49.516;6.094;2023-01-01T17:34:48;12.10;99.90
26212;DHT22;13951;49.516;6.094;2023-01-01T17:37:21;12.10;99.90
26212;DHT22;13951;49.516;6.094;2023-01-01T17:39:53;12.10;99.90
26212;DHT22;13951;49.516;6.094;2023-01-01T17:42:26;12.10;99.90
26212;DHT22;13951;49.516;6.094;2023-01-01T17:44:59;12.10;99.90
26212;DHT22;13951;49.516;6.094;2023-01-01T17:47:32;12.10;99.90
26212;DHT22;13951;49.516;6.094;2023-01-01T17:50:14;12.10;99.90
26212;DHT22;13951;49.516;6.094;2023-01-01T17:52:47;12.10;99.90
26212;DHT22;13951;49.516;6.094;2023-01-01T17:55:25;12.10;99.90
26212;DHT22;13951;49.516;6.094;2023-01-01T17:57:57;12.20;99.90
26212;DHT22;13951;49.516;6.094;2023-01-01T18:00:39;12.20;99.90
26212;DHT22;13951;49.516;6.094;2023-01-01T18:03:16;12.10;99.90
26212;DHT22;13951;49.516;6.094;2023-01-01T18:05:49;12.10;99.90